createdAt,value
2016-02-08T00:00:25.472Z,0
2016-02-08T00:01:25.474Z,0
2016-02-08T00:02:25.492Z,0
2016-02-08T00:03:25.526Z,0
2016-02-08T00:04:25.544Z,0
2016-02-08T00:05:25.549Z,0
2016-02-08T00:06:25.583Z,0
2016-02-08T00:07:25.586Z,0
2016-02-08T00:08:25.604Z,0
2016-02-08T00:09:25.638Z,0
2016-02-08T00:10:25.657Z,0
2016-02-08T00:11:25.660Z,0
2016-02-08T00:12:25.699Z,0
2016-02-08T00:13:25.702Z,0
2016-02-08T00:14:25.720Z,0
2016-02-08T00:15:25.770Z,0
2016-02-08T00:16:25.758Z,0
2016-02-08T00:17:25.775Z,0
2016-02-08T00:18:25.810Z,0
2016-02-08T00:19:25.815Z,0
2016-02-08T00:20:25.832Z,0
2016-02-08T00:21:25.882Z,0
2016-02-08T00:22:25.869Z,0
2016-02-08T00:23:25.887Z,0
2016-02-08T00:24:25.921Z,0
2016-02-08T00:25:25.939Z,0
2016-02-08T00:26:25.958Z,0
2016-02-08T00:27:25.978Z,0
2016-02-08T00:28:25.996Z,0
2016-02-08T00:29:26.014Z,0
2016-02-08T00:30:26.033Z,0
2016-02-08T00:31:26.052Z,0
2016-02-08T00:32:26.085Z,0
2016-02-08T00:33:26.104Z,0
2016-02-08T00:34:26.122Z,0
2016-02-08T00:35:26.145Z,0
2016-02-08T00:36:26.147Z,0
2016-02-08T00:37:26.180Z,0
2016-02-08T00:38:26.325Z,0
2016-02-08T00:39:26.217Z,0
2016-02-08T00:40:26.220Z,0
2016-02-08T00:41:26.240Z,0
2016-02-08T00:42:26.274Z,0
2016-02-08T00:43:26.271Z,0
2016-02-08T00:44:26.305Z,0
2016-02-08T00:45:26.324Z,0
2016-02-08T00:46:26.342Z,0
2016-02-08T00:47:26.360Z,0
2016-02-08T00:48:26.394Z,0
2016-02-08T00:49:26.397Z,0
2016-02-08T00:50:26.415Z,0
2016-02-08T00:51:26.448Z,0
2016-02-08T00:52:26.445Z,0
2016-02-08T00:53:26.478Z,0
2016-02-08T00:54:26.512Z,0
2016-02-08T00:55:26.515Z,0
2016-02-08T00:56:26.534Z,0
2016-02-08T00:57:26.568Z,0
2016-02-08T00:58:26.571Z,0
2016-02-08T00:59:26.590Z,0
2016-02-08T01:00:26.607Z,0
2016-02-08T01:01:26.641Z,0
2016-02-08T01:02:26.633Z,0
2016-02-08T01:03:26.683Z,0
2016-02-08T01:04:26.685Z,0
2016-02-08T01:05:26.703Z,0
2016-02-08T01:06:26.736Z,0
2016-02-08T01:07:26.756Z,0
2016-02-08T01:08:26.775Z,0
2016-02-08T01:09:26.793Z,0
2016-02-08T01:10:26.812Z,0
2016-02-08T01:11:26.817Z,0
2016-02-08T01:12:26.850Z,0
2016-02-08T01:13:26.854Z,0
2016-02-08T01:14:26.872Z,0
2016-02-08T01:15:26.907Z,0
2016-02-08T01:16:26.926Z,0
2016-02-08T01:17:26.943Z,0
2016-02-08T01:18:26.946Z,0
2016-02-08T01:19:26.980Z,0
2016-02-08T01:20:26.999Z,0
2016-02-08T01:21:27.001Z,0
2016-02-08T01:22:27.051Z,0
2016-02-08T01:23:27.054Z,0
2016-02-08T01:24:27.073Z,0
2016-02-08T01:25:27.106Z,0
2016-02-08T01:26:27.110Z,0
2016-02-08T01:27:27.127Z,0
2016-02-08T01:28:27.146Z,0
2016-02-08T01:29:27.165Z,0
2016-02-08T01:30:27.199Z,0
2016-02-08T01:31:27.201Z,0
2016-02-08T01:32:27.235Z,0
2016-02-08T01:33:27.237Z,0
2016-02-08T01:34:27.271Z,0
2016-02-08T01:35:27.290Z,0
2016-02-08T01:36:27.293Z,0
2016-02-08T01:37:27.343Z,0
2016-02-08T01:38:27.346Z,0
2016-02-08T01:39:27.364Z,0
2016-02-08T01:40:27.409Z,0
2016-02-08T01:41:27.397Z,0
2016-02-08T01:42:27.415Z,0
2016-02-08T01:43:27.418Z,0
2016-02-08T01:44:27.468Z,0
2016-02-08T01:45:27.471Z,0
2016-02-08T01:46:27.491Z,0
2016-02-08T01:47:27.524Z,0
2016-02-08T01:48:27.526Z,0
2016-02-08T01:49:27.546Z,0
2016-02-08T01:50:27.581Z,0
2016-02-08T01:51:27.583Z,0
2016-02-08T01:52:27.602Z,0
2016-02-08T01:53:27.635Z,0
2016-02-08T01:54:27.654Z,0
2016-02-08T01:55:27.656Z,0
2016-02-08T01:56:27.674Z,0
2016-02-08T01:57:27.708Z,0
2016-02-08T01:58:27.711Z,0
2016-02-08T01:59:27.731Z,0
2016-02-08T02:00:27.764Z,0
2016-02-08T02:01:27.766Z,0
2016-02-08T02:02:27.816Z,0
2016-02-08T02:03:27.824Z,0
2016-02-08T02:04:27.842Z,0
2016-02-08T02:05:27.845Z,0
2016-02-08T02:06:27.878Z,0
2016-02-08T02:07:27.881Z,0
2016-02-08T02:08:27.899Z,0
2016-02-08T02:09:27.939Z,0
2016-02-08T02:10:27.942Z,0
2016-02-08T02:11:27.959Z,0
2016-02-08T02:12:27.994Z,0
2016-02-08T02:13:27.997Z,0
2016-02-08T02:14:28.014Z,0
2016-02-08T02:15:28.048Z,0
2016-02-08T02:16:28.067Z,0
2016-02-08T02:17:28.070Z,0
2016-02-08T02:18:28.103Z,0
2016-02-08T02:19:28.106Z,0
2016-02-08T02:20:28.125Z,0
2016-02-08T02:21:28.016Z,0
2016-02-08T02:22:28.175Z,0
2016-02-08T02:23:28.177Z,0
2016-02-08T02:24:28.227Z,0
2016-02-08T02:25:28.215Z,0
2016-02-08T02:26:28.249Z,0
2016-02-08T02:27:28.283Z,0
2016-02-08T02:28:28.269Z,0
2016-02-08T02:29:28.288Z,0
2016-02-08T02:30:28.322Z,0
2016-02-08T02:31:28.325Z,0
2016-02-08T02:32:28.343Z,0
2016-02-08T02:33:28.378Z,0
2016-02-08T02:34:28.490Z,0
2016-02-08T02:35:28.508Z,0
2016-02-08T02:36:28.432Z,0
2016-02-08T02:37:28.451Z,0
2016-02-08T02:38:28.457Z,0
2016-02-08T02:39:28.490Z,0
2016-02-08T02:40:28.510Z,0
2016-02-08T02:41:28.516Z,0
2016-02-08T02:42:28.549Z,0
2016-02-08T02:43:28.599Z,0
2016-02-08T02:44:28.571Z,0
2016-02-08T02:45:28.604Z,0
2016-02-08T02:46:28.640Z,0
2016-02-08T02:47:28.628Z,0
2016-02-08T02:48:28.646Z,0
2016-02-08T02:49:28.679Z,0
2016-02-08T02:50:28.682Z,0
2016-02-08T02:51:28.717Z,0
2016-02-08T02:52:28.735Z,0
2016-02-08T02:53:28.754Z,0
2016-02-08T02:54:28.759Z,0
2016-02-08T02:55:28.792Z,0
2016-02-08T02:56:28.811Z,0
2016-02-08T02:57:28.829Z,0
2016-02-08T02:58:28.848Z,0
2016-02-08T02:59:28.868Z,0
2016-02-08T03:00:28.885Z,0
2016-02-08T03:01:28.887Z,0
2016-02-08T03:02:28.937Z,0
2016-02-08T03:03:28.924Z,0
2016-02-08T03:04:28.942Z,0
2016-02-08T03:05:28.993Z,0
2016-02-08T03:06:28.979Z,0
2016-02-08T03:07:29.091Z,0
2016-02-08T03:08:29.032Z,0
2016-02-08T03:09:29.050Z,0
2016-02-08T03:10:29.100Z,0
2016-02-08T03:11:29.073Z,0
2016-02-08T03:12:29.107Z,0
2016-02-08T03:13:29.125Z,0
2016-02-08T03:14:29.127Z,0
2016-02-08T03:15:29.146Z,0
2016-02-08T03:16:29.180Z,0
2016-02-08T03:17:29.213Z,0
2016-02-08T03:18:29.233Z,0
2016-02-08T03:19:29.266Z,0
2016-02-08T03:20:29.332Z,0
2016-02-08T03:21:29.261Z,0
2016-02-08T03:22:29.310Z,0
2016-02-08T03:23:29.298Z,0
2016-02-08T03:24:29.316Z,0
2016-02-08T03:25:29.351Z,0
2016-02-08T03:26:29.367Z,0
2016-02-08T03:27:29.370Z,0
2016-02-08T03:28:29.420Z,0
2016-02-08T03:29:29.408Z,0
2016-02-08T03:30:29.427Z,0
2016-02-08T03:31:29.477Z,0
2016-02-08T03:32:29.463Z,0
2016-02-08T03:33:29.482Z,0
2016-02-08T03:34:29.531Z,0
2016-02-08T03:35:29.518Z,0
2016-02-08T03:36:29.537Z,0
2016-02-08T03:37:29.602Z,0
2016-02-08T03:38:29.621Z,0
2016-02-08T03:39:29.592Z,0
2016-02-08T03:40:29.626Z,0
2016-02-08T03:41:29.676Z,0
2016-02-08T03:42:29.665Z,0
2016-02-08T03:43:29.682Z,0
2016-02-08T03:44:29.685Z,0
2016-02-08T03:45:29.719Z,0
2016-02-08T03:46:29.737Z,0
2016-02-08T03:47:29.740Z,0
2016-02-08T03:48:29.760Z,0
2016-02-08T03:49:29.622Z,0
2016-02-08T03:50:29.785Z,0
2016-02-08T03:51:29.820Z,0
2016-02-08T03:52:29.838Z,0
2016-02-08T03:53:29.872Z,0
2016-02-08T03:54:29.875Z,0
2016-02-08T03:55:29.893Z,0
2016-02-08T03:56:29.928Z,0
2016-02-08T03:57:29.915Z,0
2016-02-08T03:58:29.949Z,0
2016-02-08T03:59:29.983Z,0
2016-02-08T04:00:29.970Z,0
2016-02-08T04:01:30.004Z,0
2016-02-08T04:02:30.006Z,0
2016-02-08T04:03:30.025Z,0
2016-02-08T04:04:30.059Z,0
2016-02-08T04:05:30.092Z,0
2016-02-08T04:06:30.095Z,0
2016-02-08T04:07:30.113Z,0
2016-02-08T04:08:30.147Z,0
2016-02-08T04:09:30.136Z,0
2016-02-08T04:10:30.170Z,0
2016-02-08T04:11:30.203Z,0
2016-02-08T04:12:30.191Z,0
2016-02-08T04:13:30.195Z,0
2016-02-08T04:14:30.245Z,0
2016-02-08T04:15:30.357Z,0
2016-02-08T04:16:30.266Z,0
2016-02-08T04:17:30.286Z,0
2016-02-08T04:18:30.178Z,0
2016-02-08T04:19:30.322Z,0
2016-02-08T04:20:30.340Z,0
2016-02-08T04:21:30.358Z,0
2016-02-08T04:22:30.378Z,0
2016-02-08T04:23:30.411Z,0
2016-02-08T04:24:30.414Z,0
2016-02-08T04:25:30.434Z,0
2016-02-08T04:26:30.468Z,0
2016-02-08T04:27:30.455Z,0
2016-02-08T04:28:30.474Z,0
2016-02-08T04:29:30.507Z,0
2016-02-08T04:30:30.542Z,0
2016-02-08T04:31:30.544Z,0
2016-02-08T04:32:30.563Z,0
2016-02-08T04:33:30.597Z,0
2016-02-08T04:34:30.584Z,0
2016-02-08T04:35:30.619Z,0
2016-02-08T04:36:30.637Z,0
2016-02-08T04:37:30.655Z,0
2016-02-08T04:38:30.658Z,0
2016-02-08T04:39:30.692Z,0
2016-02-08T04:40:30.742Z,0
2016-02-08T04:41:30.714Z,0
2016-02-08T04:42:30.747Z,0
2016-02-08T04:43:30.784Z,0
2016-02-08T04:44:30.772Z,0
2016-02-08T04:45:30.789Z,0
2016-02-08T04:46:30.839Z,0
2016-02-08T04:47:30.826Z,0
2016-02-08T04:48:30.860Z,0
2016-02-08T04:49:30.878Z,0
2016-02-08T04:50:30.880Z,0
2016-02-08T04:51:30.883Z,0
2016-02-08T04:52:30.919Z,0
2016-02-08T04:53:30.969Z,0
2016-02-08T04:54:30.956Z,0
2016-02-08T04:55:30.974Z,0
2016-02-08T04:56:31.023Z,0
2016-02-08T04:57:31.011Z,0
2016-02-08T04:58:31.028Z,0
2016-02-08T04:59:31.047Z,0
2016-02-08T05:00:31.080Z,0
2016-02-08T05:01:31.068Z,0
2016-02-08T05:02:31.102Z,0
2016-02-08T05:03:31.135Z,0
2016-02-08T05:04:30.979Z,0
2016-02-08T05:05:31.154Z,0
2016-02-08T05:06:31.172Z,0
2016-02-08T05:07:31.207Z,0
2016-02-08T05:08:31.209Z,0
2016-02-08T05:09:31.071Z,0
2016-02-08T05:10:31.261Z,0
2016-02-08T05:11:31.248Z,0
2016-02-08T05:12:31.276Z,0
2016-02-08T05:13:31.295Z,0
2016-02-08T05:14:31.298Z,0
2016-02-08T05:15:31.331Z,0
2016-02-08T05:16:31.364Z,0
2016-02-08T05:17:31.383Z,0
2016-02-08T05:18:31.386Z,0
2016-02-08T05:19:31.421Z,0
2016-02-08T05:20:31.455Z,0
2016-02-08T05:21:31.443Z,0
2016-02-08T05:22:31.438Z,0
2016-02-08T05:23:31.478Z,0
2016-02-08T05:24:31.456Z,0
2016-02-08T05:25:31.481Z,0
2016-02-08T05:26:31.491Z,0
2016-02-08T05:27:31.490Z,0
2016-02-08T05:28:31.521Z,0
2016-02-08T05:29:31.520Z,0
2016-02-08T05:30:31.535Z,0
2016-02-08T05:31:31.582Z,0
2016-02-08T05:32:31.567Z,0
2016-02-08T05:33:31.584Z,0
2016-02-08T05:34:31.601Z,0
2016-02-08T05:35:31.649Z,0
2016-02-08T05:36:31.636Z,0
2016-02-08T05:37:31.653Z,0
2016-02-08T05:38:31.672Z,0
2016-02-08T05:39:31.721Z,0
2016-02-08T05:40:31.709Z,0
2016-02-08T05:41:31.571Z,0
2016-02-08T05:42:31.763Z,0
2016-02-08T05:43:31.751Z,0
2016-02-08T05:44:31.754Z,0
2016-02-08T05:45:31.820Z,0
2016-02-08T05:46:31.822Z,0
2016-02-08T05:47:31.825Z,0
2016-02-08T05:48:31.875Z,0
2016-02-08T05:49:31.861Z,0
2016-02-08T05:50:31.879Z,0
2016-02-08T05:51:31.914Z,0
2016-02-08T05:52:31.932Z,0
2016-02-08T05:53:31.935Z,0
2016-02-08T05:54:31.969Z,0
2016-02-08T05:55:31.986Z,0
2016-02-08T05:56:31.989Z,0
2016-02-08T05:57:32.008Z,0
2016-02-08T05:58:32.026Z,0
2016-02-08T05:59:32.107Z,0
2016-02-08T06:00:32.063Z,0
2016-02-08T06:01:32.081Z,0
2016-02-08T06:02:32.117Z,0
2016-02-08T06:03:32.119Z,0
2016-02-08T06:04:32.136Z,0
2016-02-08T06:05:32.156Z,0
2016-02-08T06:06:32.174Z,0
2016-02-08T06:07:32.207Z,0
2016-02-08T06:08:32.194Z,0
2016-02-08T06:09:32.229Z,0
2016-02-08T06:10:32.278Z,0
2016-02-08T06:11:32.249Z,0
2016-02-08T06:12:32.283Z,0
2016-02-08T06:13:32.288Z,0
2016-02-08T06:14:32.292Z,0
2016-02-08T06:15:32.327Z,0
2016-02-08T06:16:32.361Z,0
2016-02-08T06:17:32.395Z,0
2016-02-08T06:18:32.381Z,0
2016-02-08T06:19:32.400Z,0
2016-02-08T06:20:32.434Z,0
2016-02-08T06:21:32.468Z,0
2016-02-08T06:22:32.471Z,0
2016-02-08T06:23:32.489Z,0
2016-02-08T06:24:32.478Z,0
2016-02-08T06:25:32.495Z,4
2016-02-08T06:26:32.528Z,4
2016-02-08T06:27:32.532Z,0
2016-02-08T06:28:32.552Z,0
2016-02-08T06:29:32.586Z,4
2016-02-08T06:30:32.605Z,4
2016-02-08T06:31:32.607Z,4
2016-02-08T06:32:32.641Z,4
2016-02-08T06:33:32.660Z,8
2016-02-08T06:34:32.662Z,8
2016-02-08T06:35:32.680Z,8
2016-02-08T06:36:32.704Z,12
2016-02-08T06:37:32.721Z,12
2016-02-08T06:38:32.771Z,12
2016-02-08T06:39:32.743Z,16
2016-02-08T06:40:32.776Z,16
2016-02-08T06:41:32.936Z,16
2016-02-08T06:42:32.798Z,20
2016-02-08T06:43:32.817Z,24
2016-02-08T06:44:32.836Z,28
2016-02-08T06:45:32.856Z,28
2016-02-08T06:46:32.873Z,36
2016-02-08T06:47:32.892Z,36
2016-02-08T06:48:32.926Z,40
2016-02-08T06:49:32.928Z,44
2016-02-08T06:50:32.949Z,56
2016-02-08T06:51:32.999Z,56
2016-02-08T06:52:32.986Z,60
2016-02-08T06:53:33.004Z,64
2016-02-08T06:54:33.022Z,76
2016-02-08T06:55:33.041Z,84
2016-02-08T06:56:33.059Z,92
2016-02-08T06:57:33.077Z,100
2016-02-08T06:58:33.098Z,104
2016-02-08T06:59:33.100Z,108
2016-02-08T07:00:33.150Z,116
2016-02-08T07:01:33.153Z,124
2016-02-08T07:02:33.155Z,128
2016-02-08T07:03:33.174Z,136
2016-02-08T07:04:33.224Z,140
2016-02-08T07:05:33.211Z,140
2016-02-08T07:06:33.250Z,140
2016-02-08T07:07:33.267Z,144
2016-02-08T07:08:33.269Z,140
2016-02-08T07:09:33.273Z,128
2016-02-08T07:10:33.307Z,116
2016-02-08T07:11:33.311Z,100
2016-02-08T07:12:33.328Z,112
2016-02-08T07:13:33.362Z,128
2016-02-08T07:14:33.367Z,120
2016-02-08T07:15:33.385Z,112
2016-02-08T07:16:33.404Z,120
2016-02-08T07:17:33.422Z,136
2016-02-08T07:18:33.440Z,132
2016-02-08T07:19:33.459Z,124
2016-02-08T07:20:33.493Z,120
2016-02-08T07:21:33.511Z,128
2016-02-08T07:22:33.513Z,120
2016-02-08T07:23:33.532Z,120
2016-02-08T07:24:33.551Z,120
2016-02-08T07:25:33.570Z,112
2016-02-08T07:26:33.603Z,104
2016-02-08T07:27:33.605Z,100
2016-02-08T07:28:33.625Z,108
2016-02-08T07:29:33.658Z,128
2016-02-08T07:30:33.645Z,172
2016-02-08T07:31:33.680Z,168
2016-02-08T07:32:33.698Z,156
2016-02-08T07:33:33.732Z,148
2016-02-08T07:34:33.719Z,144
2016-02-08T07:35:33.752Z,144
2016-02-08T07:36:33.787Z,176
2016-02-08T07:37:33.821Z,172
2016-02-08T07:38:33.793Z,152
2016-02-08T07:39:33.827Z,164
2016-02-08T07:40:33.846Z,176
2016-02-08T07:41:33.850Z,204
2016-02-08T07:42:33.868Z,240
2016-02-08T07:43:33.887Z,244
2016-02-08T07:44:33.906Z,236
2016-02-08T07:45:33.988Z,236
2016-02-08T07:46:33.949Z,240
2016-02-08T07:47:33.951Z,260
2016-02-08T07:48:33.969Z,284
2016-02-08T07:49:34.003Z,280
2016-02-08T07:50:34.069Z,304
2016-02-08T07:51:34.024Z,332
2016-02-08T07:52:34.057Z,356
2016-02-08T07:53:34.061Z,368
2016-02-08T07:54:34.110Z,364
2016-02-08T07:55:34.098Z,356
2016-02-08T07:56:34.116Z,300
2016-02-08T07:57:33.993Z,236
2016-02-08T07:58:34.152Z,240
2016-02-08T07:59:34.171Z,248
2016-02-08T08:00:34.206Z,288
2016-02-08T08:01:34.210Z,284
2016-02-08T08:02:34.212Z,264
2016-02-08T08:03:34.245Z,252
2016-02-08T08:04:34.265Z,248
2016-02-08T08:05:34.314Z,252
2016-02-08T08:06:34.316Z,256
2016-02-08T08:07:34.319Z,248
2016-02-08T08:08:34.338Z,240
2016-02-08T08:09:34.356Z,236
2016-02-08T08:10:34.374Z,264
2016-02-08T08:11:34.377Z,288
2016-02-08T08:12:34.411Z,328
2016-02-08T08:13:34.418Z,340
2016-02-08T08:14:34.422Z,360
2016-02-08T08:15:34.455Z,380
2016-02-08T08:16:34.488Z,408
2016-02-08T08:17:34.491Z,432
2016-02-08T08:18:34.510Z,444
2016-02-08T08:19:34.559Z,416
2016-02-08T08:20:34.578Z,352
2016-02-08T08:21:34.566Z,368
2016-02-08T08:22:34.584Z,368
2016-02-08T08:23:34.463Z,372
2016-02-08T08:24:34.621Z,368
2016-02-08T08:25:34.638Z,388
2016-02-08T08:26:34.674Z,404
2016-02-08T08:27:34.692Z,444
2016-02-08T08:28:34.679Z,424
2016-02-08T08:29:34.717Z,384
2016-02-08T08:30:34.766Z,440
2016-02-08T08:31:34.737Z,360
2016-02-08T08:32:34.755Z,392
2016-02-08T08:33:34.789Z,464
2016-02-08T08:34:34.808Z,472
2016-02-08T08:35:34.827Z,480
2016-02-08T08:36:34.862Z,496
2016-02-08T08:37:34.879Z,440
2016-02-08T08:38:34.881Z,388
2016-02-08T08:39:34.885Z,352
2016-02-08T08:40:34.919Z,316
2016-02-08T08:41:34.936Z,312
2016-02-08T08:42:34.941Z,324
2016-02-08T08:43:34.975Z,308
2016-02-08T08:44:35.009Z,276
2016-02-08T08:45:35.011Z,304
2016-02-08T08:46:34.998Z,312
2016-02-08T08:47:34.892Z,328
2016-02-08T08:48:35.067Z,324
2016-02-08T08:49:35.085Z,372
2016-02-08T08:50:35.088Z,380
2016-02-08T08:51:35.154Z,368
2016-02-08T08:52:35.127Z,380
2016-02-08T08:53:35.160Z,408
2016-02-08T08:54:35.209Z,444
2016-02-08T08:55:35.197Z,436
2016-02-08T08:56:35.200Z,448
2016-02-08T08:57:35.234Z,456
2016-02-08T08:58:35.236Z,480
2016-02-08T08:59:35.255Z,516
2016-02-08T09:00:35.273Z,548
2016-02-08T09:01:35.308Z,572
2016-02-08T09:02:35.326Z,584
2016-02-08T09:03:35.329Z,600
2016-02-08T09:04:35.383Z,624
2016-02-08T09:05:35.369Z,660
2016-02-08T09:06:35.388Z,708
2016-02-08T09:07:35.407Z,788
2016-02-08T09:08:35.424Z,892
2016-02-08T09:09:35.443Z,960
2016-02-08T09:10:35.462Z,964
2016-02-08T09:11:35.499Z,940
2016-02-08T09:12:35.502Z,960
2016-02-08T09:13:35.519Z,892
2016-02-08T09:14:35.540Z,828
2016-02-08T09:15:35.573Z,812
2016-02-08T09:16:35.575Z,832
2016-02-08T09:17:35.579Z,912
2016-02-08T09:18:35.613Z,888
2016-02-08T09:19:35.616Z,808
2016-02-08T09:20:35.668Z,788
2016-02-08T09:21:35.671Z,852
2016-02-08T09:22:35.690Z,920
2016-02-08T09:23:35.708Z,924
2016-02-08T09:24:35.727Z,924
2016-02-08T09:25:35.729Z,992
2016-02-08T09:26:35.762Z,1000
2016-02-08T09:27:35.813Z,972
2016-02-08T09:28:35.784Z,996
2016-02-08T09:29:35.802Z,1020
2016-02-08T09:30:35.837Z,1064
2016-02-08T09:31:35.855Z,1080
2016-02-08T09:32:35.873Z,1088
2016-02-08T09:33:35.892Z,1032
2016-02-08T09:34:35.894Z,1008
2016-02-08T09:35:35.912Z,924
2016-02-08T09:36:35.946Z,932
2016-02-08T09:37:35.980Z,892
2016-02-08T09:38:35.967Z,892
2016-02-08T09:39:35.986Z,1000
2016-02-08T09:40:36.052Z,1148
2016-02-08T09:41:36.023Z,1260
2016-02-08T09:42:36.056Z,1220
2016-02-08T09:43:36.076Z,1160
2016-02-08T09:44:36.078Z,1088
2016-02-08T09:45:36.114Z,1032
2016-02-08T09:46:36.148Z,1008
2016-02-08T09:47:36.150Z,1060
2016-02-08T09:48:36.169Z,1152
2016-02-08T09:49:36.187Z,1208
2016-02-08T09:50:36.221Z,1252
2016-02-08T09:51:36.240Z,1284
2016-02-08T09:52:36.226Z,1280
2016-02-08T09:53:36.279Z,1224
2016-02-08T09:54:36.281Z,1204
2016-02-08T09:55:36.298Z,1172
2016-02-08T09:56:36.318Z,1148
2016-02-08T09:57:36.351Z,1156
2016-02-08T09:58:36.353Z,1188
2016-02-08T09:59:36.373Z,1264
2016-02-08T10:00:36.391Z,1340
2016-02-08T10:01:36.409Z,1364
2016-02-08T10:02:36.443Z,1376
2016-02-08T10:03:36.461Z,1384
2016-02-08T10:04:36.464Z,1356
2016-02-08T10:05:36.482Z,1264
2016-02-08T10:06:36.537Z,1208
2016-02-08T10:07:36.524Z,1160
2016-02-08T10:08:36.542Z,1124
2016-02-08T10:09:36.577Z,1116
2016-02-08T10:10:36.611Z,1112
2016-02-08T10:11:36.598Z,1084
2016-02-08T10:12:36.632Z,1012
2016-02-08T10:13:36.666Z,980
2016-02-08T10:14:36.671Z,1028
2016-02-08T10:15:36.704Z,1088
2016-02-08T10:16:36.723Z,1144
2016-02-08T10:17:36.726Z,1172
2016-02-08T10:18:36.760Z,1200
2016-02-08T10:19:36.778Z,1180
2016-02-08T10:20:36.766Z,1160
2016-02-08T10:21:36.816Z,1144
2016-02-08T10:22:36.834Z,1100
2016-02-08T10:23:36.852Z,1040
2016-02-08T10:24:36.839Z,1100
2016-02-08T10:25:36.874Z,1220
2016-02-08T10:26:36.891Z,1236
2016-02-08T10:27:36.910Z,1224
2016-02-08T10:28:36.928Z,1248
2016-02-08T10:29:36.931Z,1300
2016-02-08T10:30:36.965Z,1388
2016-02-08T10:31:37.000Z,1372
2016-02-08T10:32:37.033Z,1328
2016-02-08T10:33:37.021Z,1292
2016-02-08T10:34:37.039Z,1288
2016-02-08T10:35:37.072Z,1288
2016-02-08T10:36:37.075Z,1296
2016-02-08T10:37:37.094Z,1260
2016-02-08T10:38:37.127Z,1220
2016-02-08T10:39:37.006Z,1148
2016-02-08T10:40:37.149Z,1096
2016-02-08T10:41:37.184Z,1132
2016-02-08T10:42:37.203Z,1232
2016-02-08T10:43:37.236Z,1292
2016-02-08T10:44:37.240Z,1248
2016-02-08T10:45:37.242Z,1116
2016-02-08T10:46:37.276Z,1064
2016-02-08T10:47:37.356Z,1080
2016-02-08T10:48:37.314Z,1116
2016-02-08T10:49:37.347Z,1164
2016-02-08T10:50:37.380Z,1288
2016-02-08T10:51:37.367Z,1192
2016-02-08T10:52:37.386Z,1096
2016-02-08T10:53:37.419Z,1040
2016-02-08T10:54:37.454Z,988
2016-02-08T10:55:37.456Z,916
2016-02-08T10:56:37.475Z,800
2016-02-08T10:57:37.508Z,796
2016-02-08T10:58:37.511Z,896
2016-02-08T10:59:37.546Z,984
2016-02-08T11:00:37.563Z,1136
2016-02-08T11:01:37.566Z,1108
2016-02-08T11:02:37.585Z,928
2016-02-08T11:03:37.620Z,1100
2016-02-08T11:04:37.653Z,1372
2016-02-08T11:05:37.655Z,1452
2016-02-08T11:06:37.675Z,1248
2016-02-08T11:07:37.693Z,1400
2016-02-08T11:08:37.714Z,1560
2016-02-08T11:09:37.733Z,1272
2016-02-08T11:10:37.767Z,1328
2016-02-08T11:11:37.757Z,1344
2016-02-08T11:12:37.791Z,1332
2016-02-08T11:13:37.840Z,1052
2016-02-08T11:14:37.843Z,1032
2016-02-08T11:15:37.846Z,1084
2016-02-08T11:16:37.896Z,1136
2016-02-08T11:17:37.884Z,1336
2016-02-08T11:18:37.902Z,1380
2016-02-08T11:19:37.951Z,1352
2016-02-08T11:20:37.955Z,1260
2016-02-08T11:21:37.974Z,1300
2016-02-08T11:22:37.991Z,1344
2016-02-08T11:23:38.026Z,1316
2016-02-08T11:24:38.029Z,1260
2016-02-08T11:25:38.064Z,1256
2016-02-08T11:26:38.082Z,1244
2016-02-08T11:27:38.147Z,1192
2016-02-08T11:28:38.119Z,1208
2016-02-08T11:29:38.136Z,1140
2016-02-08T11:30:38.175Z,932
2016-02-08T11:31:38.178Z,932
2016-02-08T11:32:38.196Z,828
2016-02-08T11:33:38.214Z,816
2016-02-08T11:34:38.248Z,844
2016-02-08T11:35:38.266Z,848
2016-02-08T11:36:38.284Z,888
2016-02-08T11:37:38.307Z,920
2016-02-08T11:38:38.328Z,972
2016-02-08T11:39:38.363Z,1036
2016-02-08T11:40:38.350Z,1112
2016-02-08T11:41:38.384Z,1220
2016-02-08T11:42:38.402Z,1392
2016-02-08T11:43:38.422Z,1424
2016-02-08T11:44:38.472Z,1544
2016-02-08T11:45:38.490Z,1624
2016-02-08T11:46:38.478Z,1652
2016-02-08T11:47:38.528Z,1580
2016-02-08T11:48:38.562Z,1744
2016-02-08T11:49:38.549Z,1840
2016-02-08T11:50:38.583Z,1772
2016-02-08T11:51:38.618Z,1596
2016-02-08T11:52:38.620Z,1564
2016-02-08T11:53:38.639Z,1476
2016-02-08T11:54:38.657Z,1496
2016-02-08T11:55:38.676Z,1476
2016-02-08T11:56:38.714Z,1404
2016-02-08T11:57:38.716Z,1344
2016-02-08T11:58:38.735Z,1308
2016-02-08T11:59:38.772Z,1376
2016-02-08T12:00:38.806Z,1380
2016-02-08T12:01:38.808Z,1180
2016-02-08T12:02:38.811Z,1044
2016-02-08T12:03:38.877Z,1000
2016-02-08T12:04:38.864Z,936
2016-02-08T12:05:38.883Z,860
2016-02-08T12:06:38.917Z,824
2016-02-08T12:07:38.925Z,792
2016-02-08T12:08:38.943Z,796
2016-02-08T12:09:38.961Z,812
2016-02-08T12:10:38.994Z,788
2016-02-08T12:11:39.030Z,720
2016-02-08T12:12:39.032Z,624
2016-02-08T12:13:39.050Z,592
2016-02-08T12:14:39.086Z,624
2016-02-08T12:15:39.119Z,692
2016-02-08T12:16:39.137Z,708
2016-02-08T12:17:39.186Z,756
2016-02-08T12:18:39.158Z,848
2016-02-08T12:19:39.192Z,876
2016-02-08T12:20:39.211Z,964
2016-02-08T12:21:39.244Z,1104
2016-02-08T12:22:39.247Z,1120
2016-02-08T12:23:39.266Z,1132
2016-02-08T12:24:39.315Z,1084
2016-02-08T12:25:39.302Z,1120
2016-02-08T12:26:39.322Z,1304
2016-02-08T12:27:39.355Z,1348
2016-02-08T12:28:39.358Z,1348
2016-02-08T12:29:39.377Z,1464
2016-02-08T12:30:39.425Z,1484
2016-02-08T12:31:39.444Z,1412
2016-02-08T12:32:39.463Z,1340
2016-02-08T12:33:39.465Z,1248
2016-02-08T12:34:39.515Z,1140
2016-02-08T12:35:39.518Z,964
2016-02-08T12:36:39.537Z,900
2016-02-08T12:37:39.587Z,924
2016-02-08T12:38:39.589Z,992
2016-02-08T12:39:39.623Z,1164
2016-02-08T12:40:39.612Z,1328
2016-02-08T12:41:39.660Z,1308
2016-02-08T12:42:39.680Z,1276
2016-02-08T12:43:39.699Z,1216
2016-02-08T12:44:39.701Z,1112
2016-02-08T12:45:39.751Z,1204
2016-02-08T12:46:39.754Z,1172
2016-02-08T12:47:39.772Z,1068
2016-02-08T12:48:39.791Z,1084
2016-02-08T12:49:39.808Z,1012
2016-02-08T12:50:39.827Z,768
2016-02-08T12:51:39.845Z,632
2016-02-08T12:52:39.880Z,548
2016-02-08T12:53:39.913Z,464
2016-02-08T12:54:39.916Z,436
2016-02-08T12:55:39.934Z,472
2016-02-08T12:56:39.969Z,528
2016-02-08T12:57:39.846Z,500
2016-02-08T12:58:39.848Z,512
2016-02-08T12:59:40.040Z,492
2016-02-08T13:00:40.057Z,460
2016-02-08T13:01:40.077Z,472
2016-02-08T13:02:40.110Z,488
2016-02-08T13:03:40.129Z,472
2016-02-08T13:04:40.147Z,540
2016-02-08T13:05:40.182Z,584
2016-02-08T13:06:40.184Z,636
2016-02-08T13:07:40.211Z,708
2016-02-08T13:08:40.230Z,784
2016-02-08T13:09:40.280Z,844
2016-02-08T13:10:40.267Z,932
2016-02-08T13:11:40.300Z,1088
2016-02-08T13:12:40.320Z,1104
2016-02-08T13:13:40.322Z,1076
2016-02-08T13:14:40.356Z,1208
2016-02-08T13:15:40.405Z,1404
2016-02-08T13:16:40.408Z,1332
2016-02-08T13:17:40.426Z,1044
2016-02-08T13:18:40.429Z,884
2016-02-08T13:19:40.447Z,864
2016-02-08T13:20:40.480Z,732
2016-02-08T13:21:40.500Z,632
2016-02-08T13:22:40.518Z,596
2016-02-08T13:23:40.538Z,572
2016-02-08T13:24:40.556Z,520
2016-02-08T13:25:40.575Z,548
2016-02-08T13:26:40.624Z,508
2016-02-08T13:27:40.627Z,436
2016-02-08T13:28:40.676Z,408
2016-02-08T13:29:40.679Z,456
2016-02-08T13:30:40.729Z,384
2016-02-08T13:31:40.715Z,328
2016-02-08T13:32:40.765Z,344
2016-02-08T13:33:40.753Z,392
2016-02-08T13:34:40.818Z,532
2016-02-08T13:35:40.804Z,496
2016-02-08T13:36:40.824Z,332
2016-02-08T13:37:40.858Z,276
2016-02-08T13:38:40.861Z,424
2016-02-08T13:39:40.898Z,368
2016-02-08T13:40:40.916Z,292
2016-02-08T13:41:40.950Z,252
2016-02-08T13:42:40.952Z,288
2016-02-08T13:43:41.002Z,440
2016-02-08T13:44:41.005Z,396
2016-02-08T13:45:41.055Z,344
2016-02-08T13:46:41.041Z,404
2016-02-08T13:47:41.061Z,452
2016-02-08T13:48:41.094Z,468
2016-02-08T13:49:41.097Z,464
2016-02-08T13:50:41.146Z,512
2016-02-08T13:51:41.150Z,468
2016-02-08T13:52:41.168Z,632
2016-02-08T13:53:41.201Z,764
2016-02-08T13:54:41.204Z,832
2016-02-08T13:55:41.242Z,804
2016-02-08T13:56:41.277Z,688
2016-02-08T13:57:41.279Z,580
2016-02-08T13:58:41.313Z,516
2016-02-08T13:59:41.316Z,476
2016-02-08T14:00:41.366Z,460
2016-02-08T14:01:41.368Z,452
2016-02-08T14:02:41.401Z,472
2016-02-08T14:03:41.406Z,456
2016-02-08T14:04:41.439Z,404
2016-02-08T14:05:41.442Z,360
2016-02-08T14:06:41.462Z,348
2016-02-08T14:07:41.529Z,368
2016-02-08T14:08:41.548Z,404